Time;durP1;ratioP1;P1;durP2;ratioP2;P2;SDS_P1;SDS_P2;PMS_P1;PMS_P2;Temp;Humidity;BMP_temperature;BMP_pressure;BME280_temperature;BME280_humidity;BME280_pressure;Samples;Min_cycle;Max_cycle;Signal;HPM_P1;HPM_P2
2021/10/26 00:01:21;;;;;;;;;;;;;;;-144.99;100.00;52456.25;5075960;28;19977;-80
2021/10/26 00:03:49;;;;;;;;;;;;;;;-144.99;100.00;52448.09;5063701;28;19969;-81
2021/10/26 00:06:15;;;;;;;;;;;;;;;-144.99;100.00;52431.78;5077706;28;19987;-87
2021/10/26 00:08:42;;;;;;;;;;;;;;;-144.99;100.00;52444.03;5118072;28;19999;-89
2021/10/26 00:11:08;;;;;;;;;;;;;;;-144.99;100.00;52419.56;5106313;28;20048;-82
2021/10/26 00:13:36;;;;;;;;;;;;;;;-144.99;100.00;52448.09;5075140;28;20028;-78
2021/10/26 00:16:02;;;;;;;;;;;;;;;-144.99;100.00;52431.78;5072803;28;19980;-80
2021/10/26 00:18:29;;;;;;;;;;;;;;;-144.99;100.00;52444.03;5085430;28;19988;-79
2021/10/26 00:20:56;;;;;;;;;;;;;;;-144.99;100.00;52403.25;5088466;28;19980;-77
2021/10/26 00:23:23;;;;;;;;;;;;;;;-144.99;100.00;52444.03;5082734;28;20342;-77
2021/10/26 00:25:49;;;;;;;;;;;;;;;-144.99;100.00;52470.50;5085764;28;20023;-75
2021/10/26 00:28:15;;;;;;;;;;;;;;;-144.99;100.00;52448.09;5072297;28;20389;-76
2021/10/26 00:30:42;;;;;;;;;;;;;;;-144.99;100.00;52448.09;5075241;28;19988;-78
2021/10/26 00:33:08;;;;;;;;;;;;;;;-144.99;100.00;52427.72;5089730;28;20001;-78
2021/10/26 00:35:34;;;;;;;;;;;;;;;-144.99;100.00;52454.22;5083848;28;19973;-78
2021/10/26 00:38:02;;;;;;;;;;;;;;;-144.99;100.00;52444.03;5086793;28;19989;-75
2021/10/26 00:40:29;;;;;;;;;;;;;;;-144.99;100.00;52431.78;5089285;28;19992;-79
2021/10/26 00:42:56;;;;;;;;;;;;;;;-144.99;100.00;52468.47;5086206;28;19989;-80
2021/10/26 00:45:22;;;;;;;;;;;;;;;-144.99;100.00;52427.72;5079237;28;19996;-78
2021/10/26 00:47:49;;;;;;;;;;;;;;;-144.99;100.00;52460.31;5094047;28;19965;-80
2021/10/26 00:50:15;;;;;;;;;;;;;;;-144.99;100.00;52452.16;5090008;28;20544;-80
2021/10/26 00:52:43;;;;;;;;;;;;;;;-144.99;100.00;52472.56;5081873;28;19997;-78
2021/10/26 00:55:11;;;;;;;;;;;;;;;-144.99;100.00;52407.31;5072898;28;19981;-79
2021/10/26 00:57:38;;;;;;;;;;;;;;;-144.99;100.00;52454.22;5089404;28;19977;-79
2021/10/26 01:00:05;;;;;;;;;;;;;;;-144.99;100.00;52444.03;5080678;28;20072;-77
2021/10/26 01:02:32;;;;;;;;;;;;;;;-144.99;100.00;52468.47;5074217;28;20047;-80
2021/10/26 01:04:58;;;;;;;;;;;;;;;-144.99;100.00;52472.56;5071508;28;19973;-79
2021/10/26 01:07:25;;;;;;;;;;;;;;;-144.99;100.00;52476.63;5081394;28;19981;-79
2021/10/26 01:09:51;;;;;;;;;;;;;;;-144.99;100.00;52431.78;5094409;28;20000;-79
2021/10/26 01:12:19;;;;;;;;;;;;;;;-144.99;100.00;52448.09;5082225;28;20388;-79
2021/10/26 01:14:46;;;;;;;;;;;;;;;-144.99;100.00;52429.75;5059956;28;20026;-78
2021/10/26 01:17:13;;;;;;;;;;;;;;;-144.99;100.00;52460.31;5073547;28;20424;-79
2021/10/26 01:19:44;;;;;;;;;;;;;;;-144.99;100.00;52423.63;5090294;28;20255;-79
2021/10/26 01:22:11;;;;;;;;;;;;;;;-144.99;100.00;52417.53;5070993;28;20592;-77
2021/10/26 01:24:37;;;;;;;;;;;;;;;-144.99;100.00;52444.03;5083383;28;20004;-79
2021/10/26 01:27:04;;;;;;;;;;;;;;;-144.99;100.00;52444.03;5083569;28;20752;-78
2021/10/26 01:29:30;;;;;;;;;;;;;;;-144.99;100.00;52423.63;5092873;28;19997;-79
2021/10/26 01:31:58;;;;;;;;;;;;;;;-144.99;100.00;52425.66;5093359;28;19981;-80
2021/10/26 01:34:24;;;;;;;;;;;;;;;-144.99;100.00;52423.63;5091949;28;20052;-79
2021/10/26 01:36:52;;;;;;;;;;;;;;;-144.99;100.00;52470.50;5077267;28;19984;-80
2021/10/26 01:39:19;;;;;;;;;;;;;;;-144.99;100.00;52415.47;5091880;28;19981;-77
2021/10/26 01:41:45;;;;;;;;;;;;;;;-144.99;100.00;52403.25;5089461;28;20439;-75
2021/10/26 01:44:12;;;;;;;;;;;;;;;-144.99;100.00;52427.72;5063835;28;19997;-77
2021/10/26 01:46:39;;;;;;;;;;;;;;;-144.99;100.00;52423.63;5056598;28;19985;-78
2021/10/26 01:49:05;;;;;;;;;;;;;;;-144.99;100.00;52446.06;5069172;28;20091;-78
2021/10/26 01:51:32;;;;;;;;;;;;;;;-144.99;100.00;52439.94;5082632;28;19984;-80
2021/10/26 01:54:00;;;;;;;;;;;;;;;-144.99;100.00;52452.16;5089628;28;20455;-78
2021/10/26 01:56:26;;;;;;;;;;;;;;;-144.99;100.00;52452.16;5084017;28;19977;-78
2021/10/26 01:58:52;;;;;;;;;;;;;;;-144.99;100.00;52415.47;5089129;28;19992;-77
2021/10/26 02:01:19;;;;;;;;;;;;;;;-144.99;100.00;52468.47;5090703;28;19984;-77
2021/10/26 02:03:45;;;;;;;;;;;;;;;-144.99;100.00;52462.34;5068650;28;19997;-78
2021/10/26 02:06:12;;;;;;;;;;;;;;;-144.99;100.00;52452.16;5070253;28;19981;-78
2021/10/26 02:08:38;;;;;;;;;;;;;;;-144.99;100.00;52444.03;5075682;28;19992;-78
2021/10/26 02:11:06;;;;;;;;;;;;;;;-144.99;100.00;52427.72;5090236;28;20031;-77
2021/10/26 02:13:32;;;;;;;;;;;;;;;-144.99;100.00;52439.94;5069624;28;19997;-79
2021/10/26 02:15:59;;;;;;;;;;;;;;;-144.99;100.00;52427.72;5056223;28;19977;-75
2021/10/26 02:18:26;;;;;;;;;;;;;;;-144.99;100.00;52452.16;5077301;28;20078;-77
2021/10/26 02:20:53;;;;;;;;;;;;;;;-144.99;100.00;52435.88;5073831;28;20030;-75
2021/10/26 02:23:19;;;;;;;;;;;;;;;-144.99;100.00;52452.16;5057386;28;20000;-76
2021/10/26 02:25:45;;;;;;;;;;;;;;;-144.99;100.00;52423.63;5068953;28;19981;-76
2021/10/26 02:28:13;;;;;;;;;;;;;;;-144.99;100.00;52448.09;5067869;28;20042;-76
2021/10/26 02:30:41;;;;;;;;;;;;;;;-144.99;100.00;52439.94;5084749;28;19980;-76
2021/10/26 02:33:07;;;;;;;;;;;;;;;-144.99;100.00;52439.94;5079639;28;20486;-77
2021/10/26 02:35:34;;;;;;;;;;;;;;;-144.99;100.00;52468.47;5065883;28;19977;-76
2021/10/26 02:38:01;;;;;;;;;;;;;;;-144.99;100.00;52435.88;5059404;28;20578;-77
2021/10/26 02:40:28;;;;;;;;;;;;;;;-144.99;100.00;52439.94;5076322;28;20068;-76
2021/10/26 02:42:54;;;;;;;;;;;;;;;-144.99;100.00;52427.72;5063089;28;20020;-77
2021/10/26 02:45:27;;;;;;;;;;;;;;;-144.99;100.00;52427.72;5051695;28;19980;-77
2021/10/26 02:47:53;;;;;;;;;;;;;;;-144.99;100.00;52435.88;5067651;28;19988;-77
2021/10/26 02:50:20;;;;;;;;;;;;;;;-144.99;100.00;52431.78;5071229;28;20083;-77
2021/10/26 02:52:46;;;;;;;;;;;;;;;-144.99;100.00;52444.03;5089172;28;19992;-78
2021/10/26 02:55:13;;;;;;;;;;;;;;;-144.99;100.00;52448.09;5072709;28;19984;-80
2021/10/26 02:57:39;;;;;;;;;;;;;;;-144.99;100.00;52427.72;5069088;28;19985;-77
2021/10/26 03:00:06;;;;;;;;;;;;;;;-144.99;100.00;52456.25;5056644;28;20502;-76
2021/10/26 03:02:34;;;;;;;;;;;;;;;-144.99;100.00;52444.03;5067776;28;19987;-76
2021/10/26 03:05:01;;;;;;;;;;;;;;;-144.99;100.00;52448.09;5067787;28;20447;-79
2021/10/26 03:07:27;;;;;;;;;;;;;;;-144.99;100.00;52435.88;5067930;28;19981;-78
2021/10/26 03:09:54;;;;;;;;;;;;;;;-144.99;100.00;52413.44;5063545;28;20000;-79
2021/10/26 03:12:20;;;;;;;;;;;;;;;-144.99;100.00;52435.88;5078377;28;20085;-79
2021/10/26 03:14:47;;;;;;;;;;;;;;;-144.99;100.00;52413.44;5092611;22;20031;-64
2021/10/26 03:17:13;;;;;;;;;;;;;;;-144.99;100.00;52409.38;5087754;28;19973;-64
2021/10/26 03:19:41;;;;;;;;;;;;;;;-144.99;100.00;52431.78;5086751;28;20445;-65
2021/10/26 03:22:07;;;;;;;;;;;;;;;-144.99;100.00;52423.63;5102708;28;20203;-66
2021/10/26 03:24:34;;;;;;;;;;;;;;;-144.99;100.00;52439.94;5112945;28;20056;-66
2021/10/26 03:27:00;;;;;;;;;;;;;;;-144.99;100.00;52439.94;5113409;28;20428;-63
2021/10/26 03:29:27;;;;;;;;;;;;;;;-144.99;100.00;52444.03;5111095;28;20003;-61
2021/10/26 03:31:55;;;;;;;;;;;;;;;-144.99;100.00;52456.25;5105067;28;19996;-59
2021/10/26 03:34:21;;;;;;;;;;;;;;;-144.99;100.00;52456.25;5113004;28;20026;-58
2021/10/26 03:36:49;;;;;;;;;;;;;;;-144.99;100.00;52452.16;5106068;28;20023;-58
2021/10/26 03:39:15;;;;;;;;;;;;;;;-144.99;100.00;52431.78;5113390;28;20312;-56
2021/10/26 03:41:42;;;;;;;;;;;;;;;-144.99;100.00;52460.31;5090401;28;20476;-57
2021/10/26 03:44:08;;;;;;;;;;;;;;;-144.99;100.00;52456.25;5087514;28;19977;-61
2021/10/26 03:46:35;;;;;;;;;;;;;;;-144.99;100.00;52427.72;5088773;28;20103;-61
2021/10/26 03:49:02;;;;;;;;;;;;;;;-144.99;100.00;52452.16;5092473;28;20054;-60
2021/10/26 03:51:28;;;;;;;;;;;;;;;-144.99;100.00;52456.25;5092120;28;19973;-61
2021/10/26 03:53:56;;;;;;;;;;;;;;;-144.99;100.00;52452.16;5111296;28;20290;-60
2021/10/26 03:56:22;;;;;;;;;;;;;;;-144.99;100.00;52431.78;5112761;28;20409;-64
2021/10/26 03:58:49;;;;;;;;;;;;;;;-144.99;100.00;52439.94;5107157;28;20082;-64
2021/10/26 04:01:16;;;;;;;;;;;;;;;-144.99;100.00;52429.75;5091923;28;19980;-64
2021/10/26 04:03:42;;;;;;;;;;;;;;;-144.99;100.00;52450.13;5092785;28;19996;-63
2021/10/26 04:06:10;;;;;;;;;;;;;;;-144.99;100.00;52435.88;5091994;28;20421;-63
2021/10/26 04:08:45;;;;;;;;;;;;;;;-144.99;100.00;52423.63;5092696;28;19988;-64
2021/10/26 04:11:17;;;;;;;;;;;;;;;-144.99;100.00;52452.16;5092074;28;19972;-65
2021/10/26 04:13:44;;;;;;;;;;;;;;;-144.99;100.00;52462.34;5089831;28;20542;-63
2021/10/26 04:16:10;;;;;;;;;;;;;;;-144.99;100.00;52444.03;5084473;28;19980;-58
2021/10/26 04:18:36;;;;;;;;;;;;;;;-144.99;100.00;52419.56;5112471;28;20461;-62
2021/10/26 04:21:03;;;;;;;;;;;;;;;-144.99;100.00;52456.25;5104558;28;20436;-63
2021/10/26 04:23:30;;;;;;;;;;;;;;;-144.99;100.00;52435.88;5101176;28;19996;-64
2021/10/26 04:25:56;;;;;;;;;;;;;;;-144.99;100.00;52460.31;5087939;28;19988;-64
2021/10/26 04:28:24;;;;;;;;;;;;;;;-144.99;100.00;52403.25;5091696;28;20032;-65
2021/10/26 04:30:51;;;;;;;;;;;;;;;-144.99;100.00;52423.63;5090408;28;20068;-65
2021/10/26 04:33:17;;;;;;;;;;;;;;;-144.99;100.00;52415.47;5099775;28;19996;-64
2021/10/26 04:35:43;;;;;;;;;;;;;;;-144.99;100.00;52460.31;5101968;28;19976;-65
2021/10/26 04:38:10;;;;;;;;;;;;;;;-144.99;100.00;52456.25;5111698;28;20070;-66
2021/10/26 04:40:36;;;;;;;;;;;;;;;-144.99;100.00;52444.03;5111826;28;20206;-67
2021/10/26 04:43:03;;;;;;;;;;;;;;;-144.99;100.00;52464.41;5106000;28;19988;-65
2021/10/26 04:45:32;;;;;;;;;;;;;;;-144.99;100.00;52439.94;5093181;28;19980;-67
2021/10/26 04:47:58;;;;;;;;;;;;;;;-144.99;100.00;52460.31;5101512;28;19983;-65
2021/10/26 04:50:26;;;;;;;;;;;;;;;-144.99;100.00;52403.25;5111418;28;19996;-65
2021/10/26 04:52:52;;;;;;;;;;;;;;;-144.99;100.00;52439.94;5111591;28;20012;-63
2021/10/26 04:55:18;;;;;;;;;;;;;;;-144.99;100.00;52429.75;5101986;28;19977;-66
2021/10/26 04:57:45;;;;;;;;;;;;;;;-144.99;100.00;52435.88;5111462;28;19988;-67
2021/10/26 05:00:12;;;;;;;;;;;;;;;-144.99;100.00;52456.25;5107503;28;20440;-68
2021/10/26 05:02:40;;;;;;;;;;;;;;;-144.99;100.00;52468.47;5090592;28;20496;-68
2021/10/26 05:05:07;;;;;;;;;;;;;;;-144.99;100.00;52427.72;5080151;28;19977;-67
2021/10/26 05:07:34;;;;;;;;;;;;;;;-144.99;100.00;52431.78;5090676;28;19980;-67
2021/10/26 05:10:00;;;;;;;;;;;;;;;-144.99;100.00;52421.59;5090888;28;20375;-67
2021/10/26 05:12:27;;;;;;;;;;;;;;;-144.99;100.00;52448.09;5088713;28;19996;-65
2021/10/26 05:14:53;;;;;;;;;;;;;;;-144.99;100.00;52419.56;4030821;28;10000682;-67
2021/10/26 05:17:23;;;;;;;;;;;;;;;-144.99;100.00;52419.56;5098080;28;19976;-66
2021/10/26 05:19:53;;;;;;;;;;;;;;;-144.99;100.00;52444.03;5110120;28;19992;-66
2021/10/26 05:22:19;;;;;;;;;;;;;;;-144.99;100.00;52423.63;5101493;28;20042;-65
2021/10/26 05:24:46;;;;;;;;;;;;;;;-144.99;100.00;52427.72;5092798;28;20010;-64
2021/10/26 05:27:12;;;;;;;;;;;;;;;-144.99;100.00;52415.47;5087407;28;19984;-64
2021/10/26 05:29:39;;;;;;;;;;;;;;;-144.99;100.00;52482.75;5081759;28;19992;-66
2021/10/26 05:32:05;;;;;;;;;;;;;;;-144.99;100.00;52460.31;5081271;28;20401;-65
2021/10/26 05:34:32;;;;;;;;;;;;;;;-144.99;100.00;52439.94;5088125;28;19976;-72
2021/10/26 05:37:00;;;;;;;;;;;;;;;-144.99;100.00;52431.78;5081045;28;19984;-74
2021/10/26 05:39:26;;;;;;;;;;;;;;;-144.99;100.00;52431.78;5086943;28;19980;-74
2021/10/26 05:41:53;;;;;;;;;;;;;;;-144.99;100.00;52411.41;5099689;28;20011;-73
2021/10/26 05:44:19;;;;;;;;;;;;;;;-144.99;100.00;52397.13;5073668;28;19988;-71
2021/10/26 05:46:45;;;;;;;;;;;;;;;-144.99;100.00;52439.94;5082308;28;19977;-70
2021/10/26 05:49:12;;;;;;;;;;;;;;;-144.99;100.00;52448.09;5086985;28;20007;-71
2021/10/26 05:51:38;;;;;;;;;;;;;;;-144.99;100.00;52439.94;5086474;28;20000;-71
2021/10/26 05:54:06;;;;;;;;;;;;;;;-144.99;100.00;52435.88;5094024;28;20070;-72
2021/10/26 05:56:32;;;;;;;;;;;;;;;-144.99;100.00;52439.94;5104668;28;19980;-72
2021/10/26 05:58:58;;;;;;;;;;;;;;;-144.99;100.00;52427.72;5087425;28;19991;-72
2021/10/26 06:01:25;;;;;;;;;;;;;;;-144.99;100.00;52452.16;5087136;28;19980;-70
2021/10/26 06:03:51;;;;;;;;;;;;;;;-144.99;100.00;52435.88;5087022;28;19984;-70
2021/10/26 06:06:18;;;;;;;;;;;;;;;-144.99;100.00;52460.31;5087229;28;19984;-76
2021/10/26 06:08:45;;;;;;;;;;;;;;;-144.99;100.00;52439.94;5079063;28;20313;-73
2021/10/26 06:11:16;;;;;;;;;;;;;;;-144.99;100.00;52415.47;5081720;28;20046;-74
2021/10/26 06:13:45;;;;;;;;;;;;;;;-144.99;100.00;52439.94;5077353;28;20369;-72
2021/10/26 06:16:11;;;;;;;;;;;;;;;-144.99;100.00;52423.63;5084771;28;20432;-72
2021/10/26 06:18:38;;;;;;;;;;;;;;;-144.99;100.00;52448.09;5106946;28;19995;-73
2021/10/26 06:21:07;;;;;;;;;;;;;;;-144.99;100.00;52452.16;5093547;28;20091;-75
2021/10/26 06:23:34;;;;;;;;;;;;;;;-144.99;100.00;52423.63;5076980;28;20006;-73
2021/10/26 06:26:01;;;;;;;;;;;;;;;-144.99;100.00;52431.78;5086780;28;19999;-73
2021/10/26 06:28:29;;;;;;;;;;;;;;;-144.99;100.00;52448.09;5087142;28;19977;-71
2021/10/26 06:30:56;;;;;;;;;;;;;;;-144.99;100.00;52415.47;5092471;28;20168;-71
2021/10/26 06:33:22;;;;;;;;;;;;;;;-144.99;100.00;52427.72;5087781;28;20080;-71
2021/10/26 06:35:48;;;;;;;;;;;;;;;-144.99;100.00;52427.72;5087311;28;19987;-70
2021/10/26 06:38:15;;;;;;;;;;;;;;;-144.99;100.00;52427.72;5100766;28;19980;-70
2021/10/26 06:40:41;;;;;;;;;;;;;;;-144.99;100.00;52444.03;5107467;28;20517;-70
2021/10/26 06:43:07;;;;;;;;;;;;;;;-144.99;100.00;52429.75;5094245;28;19992;-70
2021/10/26 06:45:35;;;;;;;;;;;;;;;-144.99;100.00;52411.41;5075749;28;19976;-71
2021/10/26 06:48:02;;;;;;;;;;;;;;;-144.99;100.00;52425.66;5089100;28;19987;-70
2021/10/26 06:50:28;;;;;;;;;;;;;;;-144.99;100.00;52419.56;5106435;28;20468;-71
2021/10/26 06:52:54;;;;;;;;;;;;;;;-144.99;100.00;52444.03;5104767;28;20023;-70
2021/10/26 06:55:21;;;;;;;;;;;;;;;-144.99;100.00;52423.63;5105949;28;19984;-70
2021/10/26 06:57:49;;;;;;;;;;;;;;;-144.99;100.00;52456.25;5096549;28;19979;-71
2021/10/26 07:00:16;;;;;;;;;;;;;;;-144.99;100.00;52435.88;5099855;28;19973;-70
2021/10/26 07:02:47;;;;;;;;;;;;;;;-144.99;100.00;52435.88;5085819;28;20075;-71
2021/10/26 07:05:15;;;;;;;;;;;;;;;-144.99;100.00;52378.78;5085590;28;19981;-71
2021/10/26 07:07:41;;;;;;;;;;;;;;;-144.99;100.00;52476.63;5092870;28;19982;-71
2021/10/26 07:10:08;;;;;;;;;;;;;;;-144.99;100.00;52427.72;5089128;28;19992;-71
2021/10/26 07:12:35;;;;;;;;;;;;;;;-144.99;100.00;52415.47;5083566;28;19989;-71
2021/10/26 07:15:06;;;;;;;;;;;;;;;-144.99;100.00;52415.47;5083967;28;20095;-71
2021/10/26 07:17:32;;;;;;;;;;;;;;;-144.99;100.00;52391.03;5096033;28;19976;-71
2021/10/26 07:20:00;;;;;;;;;;;;;;;-144.99;100.00;52427.72;5091843;28;19962;-71
2021/10/26 07:22:26;;;;;;;;;;;;;;;-144.99;100.00;52433.81;5099755;28;20000;-71
2021/10/26 07:24:56;;;;;;;;;;;;;;;-144.99;100.00;52419.56;5105697;28;19980;-71
2021/10/26 07:27:23;;;;;;;;;;;;;;;-144.99;100.00;52423.63;5104929;28;19976;-71
2021/10/26 07:29:49;;;;;;;;;;;;;;;-144.99;100.00;52444.03;5093941;28;20448;-71
2021/10/26 07:32:16;;;;;;;;;;;;;;;-144.99;100.00;52448.09;5107351;28;20027;-70
2021/10/26 07:34:42;;;;;;;;;;;;;;;-144.99;100.00;52433.81;5104232;28;20114;-70
2021/10/26 07:37:10;;;;;;;;;;;;;;;-144.99;100.00;52435.88;5100690;28;20429;-71
2021/10/26 07:39:45;;;;;;;;;;;;;;;-144.99;100.00;52419.56;5095326;28;19971;-71
2021/10/26 07:42:11;;;;;;;;;;;;;;;-144.99;100.00;52407.31;5099123;28;20004;-71
2021/10/26 07:44:37;;;;;;;;;;;;;;;-144.99;100.00;52427.72;5078832;28;19988;-71
2021/10/26 07:47:04;;;;;;;;;;;;;;;-144.99;100.00;52435.88;5086908;28;19983;-71
2021/10/26 07:49:31;;;;;;;;;;;;;;;-144.99;100.00;52431.78;5099276;28;19994;-71
2021/10/26 07:51:57;;;;;;;;;;;;;;;-144.99;100.00;52435.88;5101409;28;20000;-71
2021/10/26 07:54:25;;;;;;;;;;;;;;;-144.99;100.00;52415.47;5105980;28;20006;-71
2021/10/26 07:56:52;;;;;;;;;;;;;;;-144.99;100.00;52397.13;5105886;28;19988;-70
2021/10/26 07:59:20;;;;;;;;;;;;;;;-144.99;100.00;52366.56;5105802;28;19980;-71
2021/10/26 08:01:46;;;;;;;;;;;;;;;-144.99;100.00;52391.03;5081703;28;20043;-71
2021/10/26 08:04:13;;;;;;;;;;;;;;;-144.99;100.00;52399.19;5086338;28;20360;-71
2021/10/26 08:06:40;;;;;;;;;;;;;;;-144.99;100.00;52472.56;5088531;28;20281;-71
2021/10/26 08:09:06;;;;;;;;;;;;;;;-144.99;100.00;52401.22;5088347;28;19987;-71
2021/10/26 08:11:35;;;;;;;;;;;;;;;-144.99;100.00;52401.22;5092209;28;19992;-71
2021/10/26 08:14:01;;;;;;;;;;;;;;;-144.99;100.00;52423.63;5090298;28;19980;-71
2021/10/26 08:16:28;;;;;;;;;;;;;;;-144.99;100.00;52407.31;5083322;28;19987;-71
2021/10/26 08:18:55;;;;;;;;;;;;;;;-144.99;100.00;52399.19;5100408;28;20353;-70
2021/10/26 08:21:21;;;;;;;;;;;;;;;-144.99;99.67;52378.78;5101609;28;20249;-71
2021/10/26 08:23:49;;;;;;;;;;;;;;;-144.99;98.98;52382.88;5092916;28;19976;-71
2021/10/26 08:26:20;;;;;;;;;;;;;;;-144.99;98.49;52439.94;5107212;28;20373;-70
2021/10/26 08:28:51;;;;;;;;;;;;;;;-144.99;96.41;52374.72;5089272;28;20063;-70
2021/10/26 08:31:22;;;;;;;;;;;;;;;-144.99;95.87;52413.44;5075622;28;20091;-71
2021/10/26 08:34:15;;;;;;;;;;;;;;;-144.99;95.09;52378.78;5092770;28;19987;-71
2021/10/26 08:36:41;;;;;;;;;;;;;;;-144.99;93.97;52378.78;5091714;28;19980;-70
2021/10/26 08:39:08;;;;;;;;;;;;;;;-144.99;93.66;52382.88;5108768;28;20209;-70
2021/10/26 08:41:36;;;;;;;;;;;;;;;-144.99;92.22;52407.31;5108634;28;19984;-71
2021/10/26 08:44:04;;;;;;;;;;;;;;;-144.99;92.16;52415.47;5097838;28;19998;-71
2021/10/26 08:46:31;;;;;;;;;;;;;;;-144.99;92.19;52407.31;5087063;28;20376;-70
2021/10/26 08:48:57;;;;;;;;;;;;;;;-144.99;93.27;52399.19;5088407;28;20025;-70
2021/10/26 08:51:24;;;;;;;;;;;;;;;-144.99;94.48;52401.22;5087411;28;19986;-70
2021/10/26 08:53:53;;;;;;;;;;;;;;;-144.99;94.27;52437.91;5087865;28;20422;-70
2021/10/26 08:56:20;;;;;;;;;;;;;;;-144.99;93.43;52415.47;5093480;28;20282;-71
2021/10/26 08:58:47;;;;;;;;;;;;;;;-144.99;93.51;52435.88;5107908;28;19990;-71
2021/10/26 09:01:15;;;;;;;;;;;;;;;-144.99;94.61;52423.63;5102652;28;20626;-70
2021/10/26 09:03:42;;;;;;;;;;;;;;;-144.99;94.98;52403.25;5087488;28;19979;-70
2021/10/26 09:06:09;;;;;;;;;;;;;;;-144.99;94.69;52403.25;5087411;28;19976;-70
2021/10/26 09:08:36;;;;;;;;;;;;;;;-144.99;94.51;52399.19;5101855;28;20078;-71
2021/10/26 09:11:15;;;;;;;;;;;;;;;-144.99;94.34;52407.31;5108370;28;20425;-70
2021/10/26 09:16:45;;;;;;;;;;;;;;;-144.99;93.56;52435.88;5103825;22;20003;-70
2021/10/26 09:19:12;;;;;;;;;;;;;;;-144.99;95.04;52452.16;5096854;28;19973;-68
2021/10/26 09:21:39;;;;;;;;;;;;;;;-144.99;94.76;52415.47;5101130;28;20351;-70
2021/10/26 09:24:08;;;;;;;;;;;;;;;-144.99;94.55;52386.94;5087901;28;19981;-70
2021/10/26 09:26:45;;;;;;;;;;;;;;;-144.99;95.68;52419.56;5085292;28;20001;-71
2021/10/26 09:29:12;;;;;;;;;;;;;;;-144.99;95.63;52378.78;5087960;28;20356;-70
2021/10/26 09:31:41;;;;;;;;;;;;;;;-144.99;94.81;52407.31;5087926;28;20000;-70
2021/10/26 09:34:12;;;;;;;;;;;;;;;-144.99;95.36;52429.75;5090530;28;21589;-76
2021/10/26 09:36:39;;;;;;;;;;;;;;;-144.99;94.32;52419.56;5092222;28;20015;-66
2021/10/26 09:39:16;;;;;;;;;;;;;;;-144.99;93.93;52407.31;5083280;28;20150;-66
2021/10/26 09:42:01;;;;;;;;;;;;;;;-144.99;93.49;52397.13;5087409;28;20388;-65
2021/10/26 09:44:29;;;;;;;;;;;;;;;-144.99;93.84;52386.94;5084238;28;20010;-65
2021/10/26 09:46:57;;;;;;;;;;;;;;;-144.99;94.21;52395.09;5097473;28;20430;-66
2021/10/26 09:49:24;;;;;;;;;;;;;;;-144.99;94.96;52427.72;5087738;28;19981;-66
2021/10/26 09:51:51;;;;;;;;;;;;;;;-144.99;95.80;52417.53;5087947;28;20005;-66
2021/10/26 09:54:19;;;;;;;;;;;;;;;-144.99;95.49;52435.88;5087395;28;19988;-66
2021/10/26 09:57:01;;;;;;;;;;;;;;;-144.99;95.42;52358.41;5087195;28;20050;-67
2021/10/26 09:59:27;;;;;;;;;;;;;;;-144.99;95.24;52407.31;5086544;28;20004;-66
2021/10/26 10:01:54;;;;;;;;;;;;;;;-144.99;94.58;52407.31;5080667;28;19993;-66
2021/10/26 10:04:26;;;;;;;;;;;;;;;-144.99;95.09;52409.38;5086221;28;20024;-66
2021/10/26 10:06:53;;;;;;;;;;;;;;;-144.99;93.38;52435.88;5088036;28;19985;-66
2021/10/26 10:09:20;;;;;;;;;;;;;;;-144.99;93.82;52421.59;5074868;28;19980;-67
2021/10/26 10:11:58;;;;;;;;;;;;;;;-144.99;93.76;52439.94;5086888;28;20345;-65
2021/10/26 10:14:24;;;;;;;;;;;;;;;-144.99;93.36;52468.47;5091729;28;19979;-66
2021/10/26 10:16:51;;;;;;;;;;;;;;;-144.99;94.39;52421.59;5087820;28;19980;-66
2021/10/26 10:19:18;;;;;;;;;;;;;;;-144.99;94.06;52450.13;5086107;28;20529;-67
2021/10/26 10:21:50;;;;;;;;;;;;;;;-144.99;93.89;52433.81;5093551;28;20066;-66
2021/10/26 10:24:17;;;;;;;;;;;;;;;-144.99;93.61;52446.06;5087440;28;19980;-65
2021/10/26 10:26:44;;;;;;;;;;;;;;;-144.99;93.59;52427.72;5088308;28;19985;-65
2021/10/26 10:29:10;;;;;;;;;;;;;;;-144.99;92.80;52423.63;5086621;28;19976;-66
2021/10/26 10:31:37;;;;;;;;;;;;;;;-144.99;92.32;52378.78;5087551;28;20488;-66
2021/10/26 10:34:03;;;;;;;;;;;;;;;-144.99;88.90;52264.66;5095064;28;19987;-66
2021/10/26 10:36:30;;;;;;;;;;;;;;;-144.99;82.05;52293.19;5087989;28;19976;-65
2021/10/26 10:38:57;;;;;;;;;;;;;;;-144.99;75.73;52197.41;5087185;28;20003;-67
2021/10/26 10:41:26;;;;;;;;;;;;;;;-144.99;70.39;52160.72;5084845;28;19972;-66
2021/10/26 10:43:53;;;;;;;;;;;;;;;-144.99;67.35;52187.19;5091658;28;19987;-67
2021/10/26 10:46:35;;;;;;;;;;;;;;;-144.99;66.21;52154.59;5092718;28;19979;-66
2021/10/26 10:49:29;;;;;;;;;;;;;;;-144.99;63.07;52234.09;5087561;28;20360;-67
2021/10/26 10:51:57;;;;;;;;;;;;;;;-144.99;60.77;52134.22;5085255;28;20495;-66
2021/10/26 10:54:50;;;;;;;;;;;;;;;-144.99;60.49;52195.34;5086215;28;19975;-66
2021/10/26 10:57:18;;;;;;;;;;;;;;;-144.99;62.38;52301.34;5067946;28;19975;-67
2021/10/26 10:59:45;;;;;;;;;;;;;;;-144.99;64.29;52130.13;5086657;28;19984;-66
2021/10/26 11:02:18;;;;;;;;;;;;;;;-144.99;63.34;52325.81;5079858;28;20019;-67
2021/10/26 11:04:45;;;;;;;;;;;;;;;-144.99;63.94;52370.63;5086746;28;20077;-67
2021/10/26 11:07:11;;;;;;;;;;;;;;;-144.99;63.48;52378.78;5086669;28;20031;-67
2021/10/26 11:09:42;;;;;;;;;;;;;;;-144.99;66.39;52372.69;5086407;28;20526;-66
2021/10/26 11:12:11;;;;;;;;;;;;;;;-144.99;65.25;52358.41;5077866;28;20044;-65
2021/10/26 11:14:43;;;;;;;;;;;;;;;-144.99;62.09;52181.09;5079971;28;20020;-65
2021/10/26 11:17:24;;;;;;;;;;;;;;;-144.99;59.72;52366.56;5088668;28;19984;-66
2021/10/26 11:19:51;;;;;;;;;;;;;;;-144.99;58.83;52203.50;5085649;28;20432;-67
2021/10/26 11:22:32;;;;;;;;;;;;;;;-144.99;56.92;52150.53;5089553;28;20452;-65
2021/10/26 11:25:17;;;;;;;;;;;;;;;-144.99;53.09;52154.59;5085244;28;19984;-65
2021/10/26 11:27:43;;;;;;;;;;;;;;;-144.99;50.95;52211.66;5086159;28;20453;-65
2021/10/26 11:30:24;;;;;;;;;;;;;;;-144.99;52.55;52272.81;5086782;28;20425;-67
2021/10/26 11:33:23;;;;;;;;;;;;;;;-144.99;57.41;52338.03;5083335;28;20000;-66
2021/10/26 11:35:50;;;;;;;;;;;;;;;-144.99;60.16;52370.63;5088368;28;20071;-66
2021/10/26 11:38:17;;;;;;;;;;;;;;;-144.99;62.27;52366.56;5086651;28;19991;-66
2021/10/26 11:40:49;;;;;;;;;;;;;;;-144.99;62.04;52374.72;5090186;28;20005;-65
2021/10/26 11:43:16;;;;;;;;;;;;;;;-144.99;62.07;52293.19;5086786;28;19995;-66
2021/10/26 11:45:52;;;;;;;;;;;;;;;-144.99;60.39;52333.94;5103600;28;19980;-66
2021/10/26 11:48:34;;;;;;;;;;;;;;;-144.99;61.80;52366.56;5097100;28;19991;-65
2021/10/26 11:51:15;;;;;;;;;;;;;;;-144.99;64.14;52397.13;5089723;28;20444;-65
2021/10/26 11:53:43;;;;;;;;;;;;;;;-144.99;64.60;52376.75;5076617;28;19999;-65
2021/10/26 11:56:26;;;;;;;;;;;;;;;-144.99;65.26;52407.31;5090002;28;19985;-66
2021/10/26 11:58:57;;;;;;;;;;;;;;;-144.99;66.14;52407.31;5091046;28;20209;-65
2021/10/26 12:01:33;;;;;;;;;;;;;;;-144.99;66.40;52399.19;5090411;28;20399;-65
2021/10/26 12:04:00;;;;;;;;;;;;;;;-144.99;66.18;52452.16;5089687;28;19980;-66
2021/10/26 12:06:30;;;;;;;;;;;;;;;-144.99;66.68;52431.78;5089581;28;19980;-66
2021/10/26 12:08:59;;;;;;;;;;;;;;;-144.99;67.47;52388.97;5090084;28;19987;-65
2021/10/26 12:11:29;;;;;;;;;;;;;;;-144.99;68.53;52423.63;5089553;28;19986;-66
2021/10/26 12:14:26;;;;;;;;;;;;;;;-144.99;69.23;52480.72;5086829;28;20002;-65
2021/10/26 12:17:16;;;;;;;;;;;;;;;-144.99;70.35;52419.56;5028150;28;19995;-65
2021/10/26 12:19:44;;;;;;;;;;;;;;;-144.99;71.82;52444.03;5085546;28;20561;-66
2021/10/26 12:22:15;;;;;;;;;;;;;;;-144.99;72.13;52460.31;5095961;28;20484;-66
2021/10/26 12:24:47;;;;;;;;;;;;;;;-144.99;72.47;52456.25;5088298;28;20162;-65
2021/10/26 12:27:13;;;;;;;;;;;;;;;-144.99;72.03;52431.78;5089429;28;19988;-66
2021/10/26 12:29:42;;;;;;;;;;;;;;;-144.99;72.20;52441.97;5089105;28;19981;-66